Time;durP1;ratioP1;P1;durP2;ratioP2;P2;SDS_P1;SDS_P2;PMS_P1;PMS_P2;Temp;Humidity;BMP_temperature;BMP_pressure;BME280_temperature;BME280_humidity;BME280_pressure;Samples;Min_cycle;Max_cycle;Signal;HPM_P1;HPM_P2
2022/01/02 00:00:42;;;;;;;7.05;1.45;;;27.30;64.80;;;;;;4960458;28;20041;-69
2022/01/02 00:03:09;;;;;;;6.00;1.70;;;27.30;65.50;;;;;;4992691;28;20038;-69
2022/01/02 00:05:38;;;;;;;6.32;1.77;;;27.20;65.90;;;;;;4992775;28;20540;-70
2022/01/02 00:08:10;;;;;;;7.20;2.17;;;27.20;66.60;;;;;;4992431;28;20468;-69
2022/01/02 00:10:57;;;;;;;7.55;2.30;;;27.20;67.10;;;;;;4975634;28;20037;-69
2022/01/02 00:13:30;;;;;;;7.45;1.83;;;27.20;67.10;;;;;;4992180;28;20058;-69
2022/01/02 00:16:03;;;;;;;6.25;2.00;;;27.30;67.60;;;;;;4992436;28;20030;-69
2022/01/02 00:18:37;;;;;;;5.25;1.42;;;27.20;66.70;;;;;;4992911;28;20113;-69
2022/01/02 00:21:07;;;;;;;6.40;1.48;;;27.20;67.80;;;;;;4975686;28;20066;-70
2022/01/02 00:23:53;;;;;;;6.90;1.83;;;27.20;67.20;;;;;;4992702;28;20049;-69
2022/01/02 00:26:20;;;;;;;6.40;1.60;;;27.20;65.90;;;;;;4992463;28;20081;-69
2022/01/02 00:28:47;;;;;;;5.43;1.30;;;27.20;66.70;;;;;;4974997;28;20397;-69
2022/01/02 00:31:15;;;;;;;4.38;1.80;;;27.20;65.70;;;;;;4974755;28;20440;-69
2022/01/02 00:33:42;;;;;;;7.93;1.83;;;27.30;66.90;;;;;;4974823;28;20043;-69
2022/01/02 00:36:10;;;;;;;5.47;1.42;;;27.30;67.80;;;;;;4992461;28;20053;-68
2022/01/02 00:38:38;;;;;;;3.88;1.70;;;27.30;65.90;;;;;;4974936;28;20038;-69
2022/01/02 00:41:05;;;;;;;5.38;1.50;;;27.30;64.30;;;;;;4974699;28;20030;-69
2022/01/02 00:43:47;;;;;;;4.45;1.55;;;27.30;64.80;;;;;;4974810;28;20031;-69
2022/01/02 00:46:14;;;;;;;6.55;1.58;;;27.30;65.50;;;;;;4959509;28;20087;-68
2022/01/02 00:48:44;;;;;;;4.57;1.33;;;27.30;65.80;;;;;;4974850;28;20042;-68
2022/01/02 00:51:49;;;;;;;6.35;1.80;;;27.30;64.40;;;;;;4974631;28;20034;-68
2022/01/02 00:54:17;;;;;;;4.47;1.40;;;27.30;63.60;;;;;;4945629;28;20484;-68
2022/01/02 00:56:45;;;;;;;6.15;1.60;;;27.30;65.00;;;;;;4991909;28;20092;-68
2022/01/02 00:59:39;;;;;;;7.22;1.60;;;27.30;63.80;;;;;;4991674;28;20061;-69
2022/01/02 01:02:06;;;;;;;4.45;1.48;;;27.30;64.10;;;;;;4967241;28;20396;-69
2022/01/02 01:04:34;;;;;;;5.47;1.30;;;27.30;64.20;;;;;;4974647;28;20537;-69
2022/01/02 01:07:05;;;;;;;4.95;1.52;;;27.30;64.70;;;;;;4991956;28;20031;-68
2022/01/02 01:09:33;;;;;;;8.27;1.80;;;27.30;64.50;;;;;;4958424;28;20035;-68
2022/01/02 01:12:01;;;;;;;4.85;1.60;;;27.30;64.30;;;;;;4974650;28;20037;-68
2022/01/02 01:14:29;;;;;;;6.22;1.70;;;27.40;64.40;;;;;;4958742;28;20515;-68
2022/01/02 01:16:56;;;;;;;8.48;1.95;;;27.30;63.80;;;;;;4991420;28;20035;-69
2022/01/02 01:19:23;;;;;;;10.32;2.22;;;27.30;63.70;;;;;;4991921;28;20489;-68
2022/01/02 01:21:51;;;;;;;7.03;1.90;;;27.30;64.80;;;;;;4991844;28;20063;-68
2022/01/02 01:24:18;;;;;;;10.15;3.45;;;27.30;66.10;;;;;;4991857;28;20034;-68
2022/01/02 01:26:48;;;;;;;6.82;2.50;;;27.30;65.50;;;;;;4974263;28;20485;-68
2022/01/02 01:29:15;;;;;;;6.95;2.17;;;27.30;65.60;;;;;;4991515;28;20185;-67
2022/01/02 01:31:43;;;;;;;12.45;2.40;;;27.30;66.30;;;;;;4991730;28;20384;-67
2022/01/02 01:34:11;;;;;;;7.75;1.90;;;27.30;64.90;;;;;;4991450;28;20117;-67
2022/01/02 01:36:38;;;;;;;10.18;1.95;;;27.30;66.10;;;;;;4991824;28;20396;-67
2022/01/02 01:39:05;;;;;;;11.13;2.30;;;27.30;65.80;;;;;;4991619;28;20424;-67
2022/01/02 01:41:35;;;;;;;8.45;1.98;;;27.30;65.80;;;;;;4991398;28;20035;-67
2022/01/02 01:46:39;;;;;;;8.15;2.20;;;27.30;65.30;;;;;;4991735;28;20031;-67
2022/01/02 01:49:20;;;;;;;8.93;2.40;;;27.30;65.50;;;;;;4974324;28;20457;-67
2022/01/02 01:51:47;;;;;;;8.35;2.38;;;27.40;64.90;;;;;;4958180;28;20031;-67
2022/01/02 01:54:15;;;;;;;8.10;2.00;;;27.40;64.90;;;;;;4994675;28;20050;-67
2022/01/02 01:56:43;;;;;;;7.45;1.73;;;27.40;63.90;;;;;;4994573;28;20037;-67
2022/01/02 01:59:10;;;;;;;7.68;1.75;;;27.40;64.30;;;;;;4977818;28;20544;-67
2022/01/02 02:01:37;;;;;;;6.82;1.83;;;27.40;63.80;;;;;;4977634;28;20035;-67
2022/01/02 02:04:04;;;;;;;7.13;2.20;;;27.30;64.50;;;;;;4994697;28;20042;-67
2022/01/02 02:06:34;;;;;;;8.68;2.10;;;27.40;64.40;;;;;;4994682;28;20215;-67
2022/01/02 02:09:02;;;;;;;;;;;27.30;64.20;;;;;;4995009;28;20117;-67
2022/01/02 02:11:29;;;;;;;11.43;2.15;;;27.40;64.20;;;;;;4994824;28;19910;-67
2022/01/02 02:13:56;;;;;;;7.03;1.80;;;27.40;64.30;;;;;;4994602;28;20381;-67
2022/01/02 02:16:24;;;;;;;9.63;2.20;;;27.40;64.80;;;;;;4977209;28;20065;-67
2022/01/02 02:18:51;;;;;;;9.25;2.08;;;27.50;64.40;;;;;;4992949;28;20033;-67
2022/01/02 02:21:30;;;;;;;6.28;2.05;;;27.50;64.10;;;;;;4977255;28;20041;-67
2022/01/02 02:23:57;;;;;;;10.48;4.20;;;27.50;63.70;;;;;;4994213;28;20034;-67
2022/01/02 02:26:24;;;;;;;12.18;3.63;;;27.50;63.70;;;;;;4994430;28;20404;-67
2022/01/02 02:28:51;;;;;;;9.63;2.17;;;27.50;64.50;;;;;;4976945;28;20041;-67
2022/01/02 02:31:19;;;;;;;9.40;2.47;;;27.60;64.20;;;;;;4976950;28;20162;-67
2022/01/02 02:33:46;;;;;;;7.88;2.45;;;27.60;65.30;;;;;;4994083;28;20035;-67
2022/01/02 02:36:13;;;;;;;7.03;2.20;;;27.60;64.90;;;;;;4994323;28;20101;-67
2022/01/02 02:38:41;;;;;;;11.20;2.63;;;27.60;65.00;;;;;;4994209;28;20043;-67
2022/01/02 02:41:08;;;;;;;8.15;2.13;;;27.70;64.40;;;;;;4994549;28;20034;-67
2022/01/02 02:43:55;;;;;;;6.32;1.90;;;27.70;64.40;;;;;;4994267;28;20089;-67
2022/01/02 02:49:07;;;;;;;11.70;2.47;;;27.70;66.20;;;;;;4994139;28;20061;-68
2022/01/02 02:54:20;;;;;;;12.05;2.38;;;27.60;67.40;;;;;;4994039;28;20078;-67
2022/01/02 02:57:00;;;;;;;10.20;2.67;;;27.50;67.30;;;;;;4993734;28;20026;-67
2022/01/02 02:59:31;;;;;;;9.13;2.78;;;27.50;67.40;;;;;;4993686;28;20042;-67
2022/01/02 03:01:59;;;;;;;9.77;2.50;;;27.50;66.60;;;;;;4993615;28;20066;-67
2022/01/02 03:04:26;;;;;;;12.93;2.58;;;27.50;67.40;;;;;;4976521;28;20117;-67
2022/01/02 03:06:53;;;;;;;8.15;2.38;;;27.40;67.50;;;;;;4976608;28;20469;-67
2022/01/02 03:09:42;;;;;;;10.27;2.40;;;27.50;68.00;;;;;;4993906;28;20041;-67
2022/01/02 03:12:11;;;;;;;11.77;2.58;;;27.50;67.90;;;;;;4993497;28;20042;-67
2022/01/02 03:14:38;;;;;;;9.15;2.28;;;27.50;67.50;;;;;;4993375;28;20093;-67
2022/01/02 03:17:05;;;;;;;9.10;2.42;;;27.50;67.90;;;;;;4993406;28;20170;-67
2022/01/02 03:19:33;;;;;;;12.40;2.95;;;27.50;67.40;;;;;;4993383;28;20117;-67
2022/01/02 03:22:00;;;;;;;12.07;2.83;;;27.50;67.70;;;;;;4976325;28;20042;-67
2022/01/02 03:24:28;;;;;;;15.50;3.65;;;27.50;67.90;;;;;;4993093;28;20034;-67
2022/01/02 03:26:55;;;;;;;9.25;2.80;;;27.50;68.40;;;;;;4993136;28;20030;-67
2022/01/02 03:29:23;;;;;;;9.35;2.90;;;27.60;68.80;;;;;;4993111;28;20041;-67
2022/01/02 03:31:50;;;;;;;10.38;2.30;;;27.60;67.90;;;;;;4992858;28;20092;-67
2022/01/02 03:34:17;;;;;;;8.32;2.30;;;27.60;67.10;;;;;;4993164;28;20077;-68
2022/01/02 03:36:45;;;;;;;6.05;2.40;;;27.60;67.40;;;;;;4993200;28;20046;-67
2022/01/02 03:39:12;;;;;;;11.15;2.35;;;27.60;67.10;;;;;;4992946;28;20030;-67
2022/01/02 03:41:39;;;;;;;7.53;2.10;;;27.60;65.50;;;;;;4992757;28;20030;-67
2022/01/02 03:44:06;;;;;;;7.80;2.15;;;27.60;65.20;;;;;;4992733;28;20039;-67
2022/01/02 03:46:33;;;;;;;6.50;1.73;;;27.60;65.80;;;;;;4992782;28;20062;-67
2022/01/02 03:49:00;;;;;;;9.15;2.55;;;27.60;66.00;;;;;;4959319;28;20457;-68
2022/01/02 03:51:28;;;;;;;11.15;2.28;;;27.60;65.80;;;;;;4992790;28;20277;-67
2022/01/02 03:53:55;;;;;;;7.60;2.25;;;27.60;65.40;;;;;;4992466;28;20081;-68
2022/01/02 03:56:22;;;;;;;8.70;2.22;;;27.60;65.30;;;;;;4992598;28;20054;-67
2022/01/02 03:58:49;;;;;;;10.23;2.28;;;27.60;66.00;;;;;;4992427;28;20087;-67
2022/01/02 04:01:16;;;;;;;9.00;2.05;;;27.60;66.30;;;;;;4992451;28;20031;-67
2022/01/02 04:03:46;;;;;;;9.43;2.03;;;27.60;66.10;;;;;;4992521;28;20058;-67
2022/01/02 04:06:13;;;;;;;11.05;2.20;;;27.50;66.00;;;;;;4993082;28;20397;-67
2022/01/02 04:08:40;;;;;;;10.80;2.70;;;27.50;66.50;;;;;;4992518;28;20034;-67
2022/01/02 04:11:07;;;;;;;12.35;2.10;;;27.50;66.30;;;;;;4975335;28;20031;-67
2022/01/02 04:13:35;;;;;;;8.82;2.05;;;27.50;66.40;;;;;;4992322;28;20141;-68
2022/01/02 04:16:02;;;;;;;8.88;2.38;;;27.50;66.00;;;;;;4991808;28;20030;-67
2022/01/02 04:18:29;;;;;;;10.35;2.35;;;27.50;66.10;;;;;;4992054;28;20056;-67
2022/01/02 04:20:56;;;;;;;13.65;3.45;;;27.60;66.40;;;;;;4992158;28;20456;-68
2022/01/02 04:23:23;;;;;;;12.32;2.47;;;27.60;66.60;;;;;;4992243;28;20362;-67
2022/01/02 04:25:50;;;;;;;7.97;2.33;;;27.60;66.30;;;;;;4975121;28;20041;-67
2022/01/02 04:28:17;;;;;;;9.60;1.98;;;27.60;66.80;;;;;;4975208;28;20385;-67
2022/01/02 04:30:45;;;;;;;9.95;2.90;;;27.50;66.40;;;;;;4992036;28;20121;-68
2022/01/02 04:33:12;;;;;;;9.07;2.20;;;27.50;65.20;;;;;;4992140;28;20049;-68
2022/01/02 04:35:39;;;;;;;6.90;2.03;;;27.50;65.40;;;;;;4992311;28;20113;-68
2022/01/02 04:38:06;;;;;;;14.63;2.40;;;27.50;65.90;;;;;;4992142;28;20042;-68
2022/01/02 04:40:33;;;;;;;7.55;2.42;;;27.50;65.70;;;;;;4992113;28;20463;-67
2022/01/02 04:43:00;;;;;;;7.40;2.10;;;27.50;65.50;;;;;;4991944;28;20062;-67
2022/01/02 04:45:28;;;;;;;5.80;1.88;;;27.50;65.70;;;;;;4974958;28;20034;-67
2022/01/02 04:47:55;;;;;;;8.20;2.05;;;27.50;65.60;;;;;;4991924;28;20133;-68
2022/01/02 04:50:22;;;;;;;6.68;2.05;;;27.50;65.80;;;;;;4992217;28;20418;-67
2022/01/02 04:52:49;;;;;;;9.57;2.08;;;27.50;65.30;;;;;;4992222;28;20062;-67
2022/01/02 04:55:16;;;;;;;9.65;2.20;;;27.50;65.10;;;;;;4992071;28;20069;-67
2022/01/02 04:57:43;;;;;;;9.60;2.20;;;27.50;65.20;;;;;;4991575;28;20034;-68
2022/01/02 05:00:11;;;;;;;9.55;1.70;;;27.40;65.50;;;;;;4991737;28;20049;-67
2022/01/02 05:02:38;;;;;;;11.50;2.50;;;27.40;65.00;;;;;;4991905;28;20089;-67
2022/01/02 05:05:06;;;;;;;7.70;2.90;;;27.40;64.70;;;;;;4992192;28;20437;-67
2022/01/02 05:07:33;;;;;;;10.45;2.88;;;27.40;65.10;;;;;;4991686;28;20071;-67
2022/01/02 05:10:00;;;;;;;9.27;2.05;;;27.40;65.20;;;;;;4991498;28;20031;-67
2022/01/02 05:12:28;;;;;;;12.15;2.60;;;27.40;65.40;;;;;;4991700;28;20070;-67
2022/01/02 05:14:57;;;;;;;11.10;2.20;;;27.40;65.10;;;;;;4991650;28;20427;-67
2022/01/02 05:17:24;;;;;;;10.55;2.17;;;27.40;65.60;;;;;;4974499;28;20473;-67
2022/01/02 05:19:51;;;;;;;7.82;2.58;;;27.40;65.40;;;;;;4991677;28;20109;-68
2022/01/02 05:22:19;;;;;;;7.68;1.88;;;27.40;65.60;;;;;;4992165;28;20110;-67
2022/01/02 05:24:46;;;;;;;8.40;2.10;;;27.40;65.60;;;;;;4991776;28;20035;-67
2022/01/02 05:27:13;;;;;;;9.80;2.30;;;27.40;65.80;;;;;;4993305;28;20041;-67
2022/01/02 05:29:40;;;;;;;8.13;1.80;;;27.30;65.90;;;;;;4995128;28;20049;-67
2022/01/02 05:32:07;;;;;;;9.68;2.22;;;27.30;65.60;;;;;;4995413;28;20030;-67
2022/01/02 05:34:34;;;;;;;11.85;2.13;;;27.30;65.10;;;;;;4995359;28;20050;-67
2022/01/02 05:37:01;;;;;;;9.13;2.50;;;27.30;64.80;;;;;;4994840;28;20042;-67
2022/01/02 05:39:29;;;;;;;8.43;2.20;;;27.30;64.90;;;;;;4994984;28;20164;-67
2022/01/02 05:41:56;;;;;;;11.73;2.58;;;27.30;64.80;;;;;;4977730;28;20392;-68
2022/01/02 05:44:23;;;;;;;9.05;2.65;;;27.30;64.00;;;;;;4995183;28;20188;-68
2022/01/02 05:46:50;;;;;;;8.88;2.20;;;27.30;64.90;;;;;;4977768;28;20440;-68
2022/01/02 05:49:17;;;;;;;10.55;2.50;;;27.30;64.40;;;;;;4995114;28;20038;-67
2022/01/02 05:51:45;;;;;;;8.43;2.08;;;27.30;64.20;;;;;;4995057;28;20497;-67
2022/01/02 05:54:12;;;;;;;5.13;1.80;;;27.20;64.30;;;;;;4995043;28;20527;-68
2022/01/02 05:56:39;;;;;;;9.20;2.22;;;27.30;63.70;;;;;;4994990;28;20104;-67
2022/01/02 05:59:06;;;;;;;9.55;2.70;;;27.20;63.30;;;;;;4994761;28;20030;-67
2022/01/02 06:01:33;;;;;;;8.30;1.98;;;27.30;63.40;;;;;;4994764;28;20037;-67
2022/01/02 06:04:00;;;;;;;9.10;1.98;;;27.30;63.20;;;;;;4994791;28;20109;-67
2022/01/02 06:06:28;;;;;;;9.70;2.40;;;27.30;63.40;;;;;;4994790;28;20405;-67
2022/01/02 06:08:55;;;;;;;6.38;1.85;;;27.30;63.60;;;;;;4994613;28;20049;-67
2022/01/02 06:11:22;;;;;;;9.65;1.80;;;27.30;63.60;;;;;;4994141;28;20117;-67
2022/01/02 06:13:49;;;;;;;8.18;1.90;;;27.30;62.70;;;;;;4994256;28;20177;-67
2022/01/02 06:16:16;;;;;;;15.30;2.70;;;27.20;62.00;;;;;;4994446;28;20061;-67
2022/01/02 06:18:43;;;;;;;8.25;2.15;;;27.20;62.20;;;;;;4993868;28;20034;-67
2022/01/02 06:21:11;;;;;;;7.13;2.17;;;27.20;62.00;;;;;;4994217;28;20027;-68
2022/01/02 06:23:38;;;;;;;9.38;2.50;;;27.20;62.40;;;;;;4994395;28;20023;-67
2022/01/02 06:26:05;;;;;;;8.90;2.30;;;27.20;62.80;;;;;;4994518;28;20475;-68
2022/01/02 06:28:32;;;;;;;10.57;2.38;;;27.20;62.70;;;;;;4977139;28;20022;-67
2022/01/02 06:30:59;;;;;;;13.85;2.70;;;27.20;63.20;;;;;;4976279;28;20034;-68
2022/01/02 06:33:26;;;;;;;11.57;2.20;;;27.20;63.40;;;;;;4994107;28;20440;-67
2022/01/02 06:35:53;;;;;;;9.65;3.15;;;27.20;63.30;;;;;;4994335;28;20053;-67
2022/01/02 06:38:21;;;;;;;10.45;2.75;;;27.20;63.40;;;;;;4993557;28;20441;-68
2022/01/02 06:40:49;;;;;;;13.02;3.70;;;27.10;64.10;;;;;;4993878;28;20038;-67
2022/01/02 06:43:16;;;;;;;13.82;3.00;;;27.10;64.50;;;;;;4993941;28;20057;-67
2022/01/02 06:45:44;;;;;;;11.88;2.38;;;27.10;64.80;;;;;;4994748;28;20469;-67
2022/01/02 06:48:12;;;;;;;12.85;2.75;;;27.00;65.10;;;;;;5011742;23;20045;-67
2022/01/02 06:50:39;;;;;;;7.13;2.42;;;27.00;65.90;;;;;;5033436;28;20502;-68
2022/01/02 06:53:06;;;;;;;12.88;2.53;;;26.90;65.70;;;;;;5033251;28;20111;-68
2022/01/02 06:55:34;;;;;;;11.73;2.80;;;26.90;66.30;;;;;;5015626;28;20067;-68
2022/01/02 06:58:01;;;;;;;9.43;2.33;;;26.90;66.40;;;;;;5032892;28;20093;-68
2022/01/02 07:00:28;;;;;;;19.33;5.55;;;26.80;66.60;;;;;;5015487;28;20396;-67
2022/01/02 07:02:55;;;;;;;14.90;3.83;;;26.80;66.20;;;;;;5015727;28;20152;-68
2022/01/02 07:05:23;;;;;;;14.73;3.70;;;26.70;66.20;;;;;;5033249;28;20030;-68
2022/01/02 07:07:52;;;;;;;11.77;2.40;;;26.70;66.20;;;;;;5032801;28;20455;-68
2022/01/02 07:10:19;;;;;;;12.88;2.75;;;26.70;66.80;;;;;;5032795;28;20037;-68
2022/01/02 07:12:47;;;;;;;14.45;2.97;;;26.70;67.30;;;;;;5033123;28;20059;-68
2022/01/02 07:15:14;;;;;;;13.60;2.70;;;26.70;67.70;;;;;;5032926;28;20057;-68
2022/01/02 07:17:41;;;;;;;9.95;2.03;;;26.60;68.30;;;;;;5015303;28;20033;-68
2022/01/02 07:20:09;;;;;;;13.93;3.88;;;26.60;68.80;;;;;;5032793;28;20040;-68
2022/01/02 07:22:37;;;;;;;12.48;3.40;;;26.60;68.90;;;;;;5014977;28;20037;-68
2022/01/02 07:25:05;;;;;;;15.88;3.20;;;26.50;68.90;;;;;;5032478;28;20041;-68
2022/01/02 07:27:35;;;;;;;14.07;3.05;;;26.50;68.90;;;;;;5032725;28;20113;-68
2022/01/02 07:30:02;;;;;;;14.48;2.97;;;26.40;68.30;;;;;;5032032;28;20413;-68
2022/01/02 07:32:32;;;;;;;14.63;3.63;;;26.40;68.70;;;;;;5032154;28;20038;-68
2022/01/02 07:34:59;;;;;;;16.52;7.30;;;26.40;69.20;;;;;;5032590;28;20076;-68
2022/01/02 07:37:27;;;;;;;17.35;3.33;;;26.40;68.80;;;;;;5032547;28;20026;-68
2022/01/02 07:39:54;;;;;;;11.85;2.60;;;26.40;69.10;;;;;;5032195;28;20041;-68
2022/01/02 07:42:21;;;;;;;11.15;2.63;;;26.30;69.20;;;;;;5032176;28;20415;-69
2022/01/02 07:44:48;;;;;;;12.85;2.60;;;26.30;69.40;;;;;;5014931;28;20046;-68
2022/01/02 07:47:15;;;;;;;16.35;2.85;;;26.30;69.20;;;;;;5032273;28;20071;-69
2022/01/02 07:49:43;;;;;;;21.65;3.80;;;26.30;68.70;;;;;;5031730;28;20040;-68
2022/01/02 07:52:10;;;;;;;10.20;2.33;;;26.30;68.70;;;;;;5032027;28;20388;-68
2022/01/02 07:54:38;;;;;;;13.30;2.60;;;26.20;68.60;;;;;;5032027;28;20049;-68
2022/01/02 07:57:05;;;;;;;12.48;3.03;;;26.20;67.70;;;;;;5031896;28;20034;-68
2022/01/02 07:59:36;;;;;;;11.00;2.67;;;26.20;66.90;;;;;;5032292;28;20034;-68
2022/01/02 08:02:03;;;;;;;9.45;2.75;;;26.10;67.40;;;;;;5031978;28;20392;-68
2022/01/02 08:04:30;;;;;;;11.68;2.33;;;26.10;67.50;;;;;;5032338;28;20029;-68
2022/01/02 08:06:57;;;;;;;12.90;2.60;;;26.10;68.00;;;;;;5032084;28;20058;-68
2022/01/02 08:09:24;;;;;;;10.95;2.58;;;26.10;68.50;;;;;;5031809;28;20041;-68
2022/01/02 08:11:51;;;;;;;10.02;2.45;;;26.10;68.90;;;;;;5032151;28;20045;-68
2022/01/02 08:14:21;;;;;;;11.23;2.78;;;26.10;69.10;;;;;;5032125;28;20574;-68
2022/01/02 08:16:48;;;;;;;10.35;2.83;;;26.10;69.20;;;;;;5031718;28;20137;-68
2022/01/02 08:19:15;;;;;;;9.20;2.30;;;26.00;69.50;;;;;;5031806;28;20044;-70
2022/01/02 08:21:42;;;;;;;10.85;2.60;;;26.00;69.40;;;;;;5031935;28;20387;-68
2022/01/02 08:24:10;;;;;;;11.27;2.63;;;25.90;69.90;;;;;;5031819;28;20029;-68
2022/01/02 08:26:37;;;;;;;12.40;2.95;;;25.90;70.20;;;;;;5014440;28;20087;-68
2022/01/02 08:29:04;;;;;;;11.18;2.58;;;25.80;70.70;;;;;;5014069;28;20555;-68
2022/01/02 08:31:31;;;;;;;21.17;3.25;;;25.80;70.70;;;;;;5031638;28;20034;-68
2022/01/02 08:33:59;;;;;;;14.55;2.80;;;25.80;70.90;;;;;;5013978;28;20442;-68
2022/01/02 08:36:27;;;;;;;18.38;3.30;;;25.70;71.00;;;;;;5031574;28;20403;-68
2022/01/02 08:38:54;;;;;;;22.80;4.32;;;25.70;71.30;;;;;;5031447;28;20336;-67
2022/01/02 08:41:21;;;;;;;14.35;3.42;;;25.70;71.60;;;;;;5031418;28;20034;-68
2022/01/02 08:43:48;;;;;;;16.40;3.00;;;25.70;71.80;;;;;;4997724;28;20116;-67
2022/01/02 08:46:15;;;;;;;20.92;3.78;;;25.60;71.90;;;;;;5014091;28;20442;-69
2022/01/02 08:48:43;;;;;;;10.80;2.25;;;25.60;72.20;;;;;;5031505;28;20409;-66
2022/01/02 08:51:12;;;;;;;13.45;2.88;;;25.60;72.60;;;;;;5030635;28;20124;-67
2022/01/02 08:53:39;;;;;;;16.53;3.00;;;25.60;71.70;;;;;;5014441;28;20419;-68
2022/01/02 08:56:07;;;;;;;13.02;2.63;;;25.50;71.80;;;;;;5031871;28;20026;-68
2022/01/02 08:58:34;;;;;;;11.80;3.08;;;25.50;72.00;;;;;;5031897;28;20566;-68
2022/01/02 09:01:01;;;;;;;10.63;2.75;;;25.40;72.00;;;;;;5031530;28;20034;-67
2022/01/02 09:03:29;;;;;;;13.13;2.70;;;25.40;71.70;;;;;;5035118;28;20029;-68
2022/01/02 09:05:57;;;;;;;12.20;2.53;;;25.40;71.90;;;;;;5035441;28;20045;-68
2022/01/02 09:08:24;;;;;;;15.30;3.50;;;25.40;72.70;;;;;;5017853;28;20080;-68
2022/01/02 09:10:51;;;;;;;13.68;3.05;;;25.40;72.60;;;;;;5034784;28;20499;-68
2022/01/02 09:13:20;;;;;;;16.13;3.20;;;25.30;73.00;;;;;;5035101;28;20030;-67
2022/01/02 09:15:48;;;;;;;14.95;2.97;;;25.30;73.20;;;;;;5017700;28;20046;-68
2022/01/02 09:18:15;;;;;;;11.82;2.80;;;25.30;73.60;;;;;;5035211;28;20030;-68
2022/01/02 09:20:43;;;;;;;12.80;2.78;;;25.30;73.70;;;;;;5034716;28;20038;-68
2022/01/02 09:23:10;;;;;;;16.38;3.17;;;25.30;74.00;;;;;;5017166;28;20507;-68
2022/01/02 09:25:38;;;;;;;17.73;3.17;;;25.20;74.50;;;;;;5035124;28;20041;-68
2022/01/02 09:28:05;;;;;;;18.25;3.15;;;25.20;74.60;;;;;;5034685;28;20033;-68
2022/01/02 09:30:32;;;;;;;10.30;2.50;;;25.20;74.80;;;;;;5034559;28;20041;-68
2022/01/02 09:33:01;;;;;;;12.05;2.55;;;25.20;74.80;;;;;;5034696;28;20038;-67
2022/01/02 09:35:29;;;;;;;10.85;2.65;;;25.20;74.90;;;;;;5017615;28;20124;-68
2022/01/02 09:37:56;;;;;;;11.55;2.90;;;25.20;74.90;;;;;;5034504;28;20033;-68
2022/01/02 09:40:24;;;;;;;14.43;3.17;;;25.20;75.20;;;;;;5034751;28;20038;-68
2022/01/02 09:42:51;;;;;;;15.57;3.97;;;25.20;75.20;;;;;;5001181;28;20044;-68
2022/01/02 09:45:19;;;;;;;20.83;5.38;;;25.20;75.10;;;;;;5016893;28;20037;-68
2022/01/02 09:47:46;;;;;;;20.02;3.38;;;25.10;75.30;;;;;;5034530;28;20062;-69
2022/01/02 09:50:13;;;;;;;16.00;3.00;;;25.10;75.20;;;;;;5034193;28;20030;-68
2022/01/02 09:52:41;;;;;;;15.75;3.22;;;25.10;75.30;;;;;;5017059;28;20068;-68
2022/01/02 09:55:08;;;;;;;13.20;3.13;;;25.10;75.50;;;;;;5034382;28;20504;-68
2022/01/02 09:57:35;;;;;;;18.55;3.08;;;25.10;75.60;;;;;;5034604;28;20365;-68
2022/01/02 10:00:03;;;;;;;12.27;2.42;;;25.10;75.60;;;;;;5016299;28;20037;-68
2022/01/02 10:02:57;;;;;;;15.23;3.40;;;25.10;75.50;;;;;;5034277;28;20026;-68
2022/01/02 10:05:26;;;;;;;11.82;2.70;;;25.10;75.80;;;;;;5017973;28;20125;-68
2022/01/02 10:07:54;;;;;;;13.93;3.27;;;25.00;75.80;;;;;;5016498;28;20084;-68
2022/01/02 10:10:21;;;;;;;16.50;3.28;;;25.10;76.00;;;;;;5016340;28;20038;-68
2022/01/02 10:12:48;;;;;;;12.48;2.50;;;25.00;76.30;;;;;;5033520;28;20065;-68
2022/01/02 10:15:23;;;;;;;16.35;3.08;;;25.00;76.40;;;;;;5034115;28;20492;-68
2022/01/02 10:18:06;;;;;;;15.80;3.25;;;25.00;76.60;;;;;;5033940;28;20418;-68
2022/01/02 10:20:41;;;;;;;17.30;3.78;;;25.00;76.80;;;;;;5033877;28;20428;-68
2022/01/02 10:23:24;;;;;;;18.08;3.88;;;25.00;77.00;;;;;;5016652;28;20081;-68
2022/01/02 10:25:58;;;;;;;18.35;3.72;;;25.00;77.10;;;;;;5033414;28;20537;-68
2022/01/02 10:28:43;;;;;;;19.10;3.10;;;24.90;76.90;;;;;;5033582;28;20112;-68
2022/01/02 10:31:15;;;;;;;12.73;2.28;;;24.90;77.20;;;;;;5033692;28;20457;-68
2022/01/02 10:34:00;;;;;;;16.40;3.20;;;24.80;77.30;;;;;;5016260;28;20048;-68
2022/01/02 10:36:40;;;;;;;13.60;2.58;;;24.90;77.10;;;;;;5033174;28;20117;-68
2022/01/02 10:39:15;;;;;;;18.08;3.50;;;24.90;77.10;;;;;;5016204;28;20048;-68
2022/01/02 10:41:45;;;;;;;11.57;2.50;;;24.80;76.70;;;;;;5015623;28;20026;-68
2022/01/02 10:44:35;;;;;;;17.60;2.67;;;24.80;76.70;;;;;;5033316;28;20361;-68
2022/01/02 10:47:16;;;;;;;13.18;2.67;;;24.80;76.50;;;;;;5016759;28;20387;-68
2022/01/02 10:49:59;;;;;;;16.42;2.92;;;24.80;76.30;;;;;;5033344;28;20041;-68
2022/01/02 10:52:34;;;;;;;14.77;3.53;;;24.80;76.20;;;;;;5032853;28;20507;-68
2022/01/02 10:55:19;;;;;;;16.17;4.07;;;24.80;76.10;;;;;;5033426;28;20423;-68
2022/01/02 10:57:50;;;;;;;18.70;4.78;;;24.80;76.20;;;;;;5033304;28;20046;-68
2022/01/02 11:00:22;;;;;;;14.38;3.30;;;24.80;76.10;;;;;;4999390;28;20446;-68
2022/01/02 11:02:50;;;;;;;26.58;4.20;;;24.70;75.90;;;;;;5033035;28;20040;-68
2022/01/02 11:05:19;;;;;;;13.02;3.13;;;24.70;75.90;;;;;;5015145;28;20034;-68
2022/01/02 11:07:50;;;;;;;13.65;2.95;;;24.70;75.90;;;;;;5033037;28;20071;-68
2022/01/02 11:10:19;;;;;;;12.73;2.70;;;24.70;76.00;;;;;;5015032;28;20120;-68
2022/01/02 11:12:47;;;;;;;17.23;2.90;;;24.70;76.10;;;;;;5015309;28;20061;-68
2022/01/02 11:15:16;;;;;;;12.48;2.95;;;24.70;76.10;;;;;;5032616;28;20040;-67
2022/01/02 11:17:43;;;;;;;12.60;3.03;;;24.70;76.20;;;;;;5032739;28;20125;-68
2022/01/02 11:20:18;;;;;;;12.18;2.47;;;24.70;76.20;;;;;;5032707;28;20045;-67
2022/01/02 11:22:54;;;;;;;13.60;2.90;;;24.60;76.30;;;;;;5032659;28;20037;-68
2022/01/02 11:25:50;;;;;;;14.40;3.17;;;24.60;76.40;;;;;;5032446;28;20125;-68
2022/01/02 11:28:38;;;;;;;19.63;6.65;;;24.60;76.50;;;;;;5032357;28;20034;-68
2022/01/02 11:31:06;;;;;;;14.50;3.17;;;24.60;76.30;;;;;;5032040;28;20037;-68
2022/01/02 11:33:39;;;;;;;14.57;3.83;;;24.60;76.50;;;;;;5032317;28;20492;-68
2022/01/02 11:36:27;;;;;;;12.52;2.83;;;24.60;76.40;;;;;;5014728;28;20084;-68
2022/01/02 11:39:07;;;;;;;16.13;2.53;;;24.60;76.60;;;;;;5032211;28;20078;-68
2022/01/02 11:41:44;;;;;;;14.68;3.05;;;24.60;76.90;;;;;;5014144;28;20034;-68
2022/01/02 11:44:49;;;;;;;15.32;3.40;;;24.60;77.10;;;;;;5032046;28;20530;-68
2022/01/02 11:47:42;;;;;;;15.00;3.63;;;24.50;77.10;;;;;;5027193;28;20120;-69
2022/01/02 11:50:30;;;;;;;16.77;4.47;;;24.60;77.00;;;;;;5015969;28;20037;-67
2022/01/02 11:53:23;;;;;;;15.65;3.88;;;24.60;77.20;;;;;;5032049;28;20030;-68
2022/01/02 11:55:51;;;;;;;11.63;2.55;;;24.60;77.40;;;;;;5015355;28;20145;-68
2022/01/02 11:58:46;;;;;;;16.65;3.53;;;24.60;77.60;;;;;;5031786;28;20471;-68
2022/01/02 12:01:49;;;;;;;9.68;2.70;;;24.60;77.60;;;;;;5014337;28;20113;-68
2022/01/02 12:04:16;;;;;;;23.15;6.72;;;24.50;77.80;;;;;;4998753;28;20061;-68
2022/01/02 12:06:45;;;;;;;14.38;3.63;;;24.60;77.90;;;;;;4997991;28;20464;-68
2022/01/02 12:09:34;;;;;;;15.55;4.65;;;24.60;77.80;;;;;;5032162;28;20041;-69
2022/01/02 12:12:03;;;;;;;18.55;6.45;;;24.50;78.20;;;;;;5032051;28;20041;-69
2022/01/02 12:14:30;;;;;;;17.30;3.92;;;24.50;78.20;;;;;;5031844;28;20129;-68
2022/01/02 12:17:08;;;;;;;16.77;2.80;;;24.50;78.20;;;;;;5014594;28;20038;-69
2022/01/02 12:19:58;;;;;;;15.68;2.80;;;24.50;78.40;;;;;;5032199;28;20029;-69
2022/01/02 12:22:39;;;;;;;19.48;3.95;;;24.50;78.40;;;;;;5032292;28;20063;-69
2022/01/02 12:25:32;;;;;;;20.92;3.20;;;24.50;78.60;;;;;;5016432;28;20463;-69
2022/01/02 12:28:06;;;;;;;24.20;3.97;;;24.50;78.70;;;;;;5009521;28;20037;-69
2022/01/02 12:30:37;;;;;;;17.63;3.40;;;24.50;78.90;;;;;;5032014;28;20438;-69
2022/01/02 12:33:04;;;;;;;12.23;2.63;;;24.50;79.00;;;;;;5014707;28;20033;-69
2022/01/02 12:35:43;;;;;;;15.73;2.90;;;24.40;79.00;;;;;;5031801;28;20048;-68
2022/01/02 12:38:11;;;;;;;14.90;3.10;;;24.40;78.60;;;;;;5031426;28;20033;-68
2022/01/02 12:40:42;;;;;;;16.90;3.10;;;24.40;78.70;;;;;;5031502;28;20034;-69
2022/01/02 12:43:12;;;;;;;12.75;3.17;;;24.40;78.30;;;;;;5031926;28;20168;-69
2022/01/02 12:45:39;;;;;;;13.77;2.60;;;24.40;78.40;;;;;;5014084;28;20042;-68
2022/01/02 12:48:06;;;;;;;17.67;3.50;;;24.50;78.30;;;;;;4998009;28;20051;-69
2022/01/02 12:50:34;;;;;;;15.80;3.17;;;24.40;78.10;;;;;;5031501;28;20032;-67
2022/01/02 12:53:01;;;;;;;16.92;3.72;;;24.40;78.20;;;;;;5032075;28;20117;-68
2022/01/02 12:55:29;;;;;;;21.02;3.83;;;24.40;78.30;;;;;;5031713;28;20067;-68
2022/01/02 12:58:04;;;;;;;13.77;4.30;;;24.40;78.50;;;;;;5014198;28;20443;-68
2022/01/02 13:00:31;;;;;;;15.43;3.90;;;24.40;78.20;;;;;;5014012;28;20034;-68
2022/01/02 13:02:58;;;;;;;12.35;2.88;;;24.40;78.00;;;;;;5031499;28;20057;-68